Time;durP1;ratioP1;P1;durP2;ratioP2;P2;SDS_P1;SDS_P2;PMS_P1;PMS_P2;Temp;Humidity;BMP_temperature;BMP_pressure;BME280_temperature;BME280_humidity;BME280_pressure;Samples;Min_cycle;Max_cycle;Signal;HPM_P1;HPM_P2
2020/12/07 00:00:52;;;;;;;33.90;19.57;;;;;;;;;;4364110;32;20209;-83
2020/12/07 00:03:18;;;;;;;34.83;19.23;;;;;;;;;;4364114;32;20244;-82
2020/12/07 00:05:43;;;;;;;34.87;20.30;;;;;;;;;;4364347;32;20166;-82
2020/12/07 00:08:09;;;;;;;35.87;20.07;;;;;;;;;;4364016;32;20165;-82
2020/12/07 00:10:34;;;;;;;35.83;19.57;;;;;;;;;;4363839;32;20151;-82
2020/12/07 00:13:01;;;;;;;36.87;20.27;;;;;;;;;;4363962;32;20162;-83
2020/12/07 00:15:32;;;;;;;35.60;19.97;;;;;;;;;;4364231;32;20189;-82
2020/12/07 00:18:00;;;;;;;34.83;20.00;;;;;;;;;;4363620;32;20712;-82
2020/12/07 00:20:26;;;;;;;33.00;19.47;;;;;;;;;;4363563;32;20155;-82
2020/12/07 00:22:54;;;;;;;31.97;19.40;;;;;;;;;;4363395;32;20151;-83
2020/12/07 00:25:20;;;;;;;33.27;19.10;;;;;;;;;;4363775;32;20188;-82
2020/12/07 00:27:45;;;;;;;30.27;18.17;;;;;;;;;;4363377;32;20163;-83
2020/12/07 00:30:13;;;;;;;33.17;18.00;;;;;;;;;;4363432;32;20151;-82
2020/12/07 00:32:38;;;;;;;34.03;18.20;;;;;;;;;;4363487;32;20258;-82
2020/12/07 00:35:07;;;;;;;31.27;17.53;;;;;;;;;;4363360;32;20500;-83
2020/12/07 00:37:41;;;;;;;29.87;16.43;;;;;;;;;;4376895;32;20160;-82
2020/12/07 00:40:06;;;;;;;28.43;16.70;;;;;;;;;;4363932;32;20147;-82
2020/12/07 00:42:31;;;;;;;29.63;17.37;;;;;;;;;;4363176;32;20218;-82
2020/12/07 00:44:59;;;;;;;33.47;18.93;;;;;;;;;;4363838;32;20201;-82
2020/12/07 00:47:24;;;;;;;27.53;15.80;;;;;;;;;;4363726;32;20154;-82
2020/12/07 00:49:49;;;;;;;30.97;17.57;;;;;;;;;;4363437;32;20225;-83
2020/12/07 00:52:14;;;;;;;33.17;17.57;;;;;;;;;;4363408;32;20182;-82
2020/12/07 00:54:40;;;;;;;30.47;16.80;;;;;;;;;;4363145;32;20174;-83
2020/12/07 00:57:05;;;;;;;31.60;18.93;;;;;;;;;;4363158;32;20208;-82
2020/12/07 00:59:31;;;;;;;30.03;17.07;;;;;;;;;;4363066;32;20174;-83
2020/12/07 01:01:57;;;;;;;32.70;17.40;;;;;;;;;;4363776;32;20178;-82
2020/12/07 01:04:28;;;;;;;31.00;17.73;;;;;;;;;;4363871;32;20150;-83
2020/12/07 01:06:53;;;;;;;29.97;17.73;;;;;;;;;;4363717;32;20146;-82
2020/12/07 01:09:22;;;;;;;29.60;16.07;;;;;;;;;;4362249;32;20448;-82
2020/12/07 01:11:53;;;;;;;30.47;17.00;;;;;;;;;;4362597;32;20151;-84
2020/12/07 01:14:21;;;;;;;27.30;16.23;;;;;;;;;;4363864;32;20204;-82
2020/12/07 01:16:47;;;;;;;28.57;16.33;;;;;;;;;;4362880;32;20176;-82
2020/12/07 01:19:12;;;;;;;30.60;16.67;;;;;;;;;;4362850;32;20503;-82
2020/12/07 01:21:37;;;;;;;31.23;18.00;;;;;;;;;;4362838;32;20182;-82
2020/12/07 01:24:13;;;;;;;31.90;18.03;;;;;;;;;;4362835;32;20146;-83
2020/12/07 01:26:42;;;;;;;30.77;17.83;;;;;;;;;;4360681;32;20151;-82
2020/12/07 01:29:07;;;;;;;31.10;17.27;;;;;;;;;;4347951;33;20173;-83
2020/12/07 01:31:37;;;;;;;28.37;16.73;;;;;;;;;;4347848;33;20492;-82
2020/12/07 01:34:03;;;;;;;28.07;16.63;;;;;;;;;;4347671;33;20154;-82
2020/12/07 01:36:31;;;;;;;31.13;17.77;;;;;;;;;;4347762;33;20250;-83
2020/12/07 01:38:57;;;;;;;30.83;16.77;;;;;;;;;;4361598;32;20128;-83
2020/12/07 01:41:31;;;;;;;28.30;15.47;;;;;;;;;;4347583;33;20236;-82
2020/12/07 01:43:57;;;;;;;32.87;17.37;;;;;;;;;;4361511;32;20123;-82
2020/12/07 01:46:23;;;;;;;26.90;14.67;;;;;;;;;;4347565;33;20201;-82
2020/12/07 01:49:04;;;;;;;;;;;;;;;;;;;;;
2020/12/07 01:52:02;;;;;;;25.80;14.97;;;;;;;;;;4361801;33;20139;-82
2020/12/07 01:57:13;;;;;;;27.47;16.43;;;;;;;;;;4337726;33;20158;-81
2020/12/07 01:59:41;;;;;;;23.97;14.57;;;;;;;;;;4347648;33;20148;-81
2020/12/07 02:02:06;;;;;;;26.70;15.93;;;;;;;;;;4347497;33;20182;-81
2020/12/07 02:04:32;;;;;;;27.87;15.47;;;;;;;;;;4347307;33;20558;-79
2020/12/07 02:07:00;;;;;;;28.07;15.50;;;;;;;;;;4347283;33;20630;-81
2020/12/07 02:09:29;;;;;;;27.23;16.30;;;;;;;;;;4347258;33;20190;-79
2020/12/07 02:11:54;;;;;;;26.37;14.93;;;;;;;;;;4347368;33;20170;-81
2020/12/07 02:14:20;;;;;;;29.23;16.43;;;;;;;;;;4347172;33;20186;-80
2020/12/07 02:16:45;;;;;;;27.80;15.73;;;;;;;;;;4347140;33;20480;-80
2020/12/07 02:19:10;;;;;;;27.20;15.13;;;;;;;;;;4348102;33;20560;-81
2020/12/07 02:21:36;;;;;;;27.00;14.33;;;;;;;;;;4347732;33;20229;-80
2020/12/07 02:24:01;;;;;;;30.50;15.87;;;;;;;;;;4347428;33;20160;-81
2020/12/07 02:26:29;;;;;;;24.50;13.77;;;;;;;;;;4347003;33;20185;-80
2020/12/07 02:28:54;;;;;;;28.87;16.13;;;;;;;;;;4347294;33;20162;-81
2020/12/07 02:31:20;;;;;;;27.77;15.97;;;;;;;;;;4346950;33;20631;-80
2020/12/07 02:33:45;;;;;;;29.53;16.77;;;;;;;;;;4347927;33;20245;-80
2020/12/07 02:36:10;;;;;;;33.33;17.93;;;;;;;;;;4347816;33;20159;-80
2020/12/07 02:38:36;;;;;;;27.90;16.00;;;;;;;;;;4347338;33;20607;-81
2020/12/07 02:41:01;;;;;;;32.27;16.33;;;;;;;;;;4360622;32;20648;-80
2020/12/07 02:43:26;;;;;;;32.07;16.17;;;;;;;;;;4347097;33;20633;-80
2020/12/07 02:45:52;;;;;;;32.67;18.03;;;;;;;;;;4360618;33;20128;-80
2020/12/07 02:48:17;;;;;;;34.47;18.27;;;;;;;;;;4347315;33;20563;-80
2020/12/07 02:50:42;;;;;;;38.43;19.40;;;;;;;;;;4347270;33;20573;-79
2020/12/07 02:53:07;;;;;;;32.43;17.67;;;;;;;;;;4346962;33;20190;-79
2020/12/07 02:55:35;;;;;;;34.40;16.93;;;;;;;;;;4347113;33;20565;-79
2020/12/07 02:58:00;;;;;;;36.50;19.23;;;;;;;;;;4346600;33;20499;-79
2020/12/07 03:00:26;;;;;;;35.47;18.93;;;;;;;;;;4347006;33;20159;-79
2020/12/07 03:02:51;;;;;;;33.30;17.83;;;;;;;;;;4346897;33;20193;-79
2020/12/07 03:05:16;;;;;;;35.97;18.73;;;;;;;;;;4349041;32;20150;-79
2020/12/07 03:07:42;;;;;;;34.50;17.87;;;;;;;;;;4375997;32;20130;-79
2020/12/07 03:10:07;;;;;;;49.20;21.90;;;;;;;;;;4361314;32;20201;-79
2020/12/07 03:12:32;;;;;;;45.53;21.43;;;;;;;;;;4361248;32;20189;-79
2020/12/07 03:14:57;;;;;;;38.67;19.23;;;;;;;;;;4375566;32;20188;-79
2020/12/07 03:17:26;;;;;;;37.87;19.17;;;;;;;;;;4374938;32;20552;-79
2020/12/07 03:19:51;;;;;;;39.70;19.43;;;;;;;;;;4376060;32;20138;-79
2020/12/07 03:22:16;;;;;;;34.23;17.80;;;;;;;;;;4375410;32;20131;-79
2020/12/07 03:24:42;;;;;;;32.83;17.43;;;;;;;;;;4361529;32;20629;-79
2020/12/07 03:27:07;;;;;;;33.07;17.23;;;;;;;;;;4376441;32;20158;-79
2020/12/07 03:29:32;;;;;;;35.57;17.20;;;;;;;;;;4374916;32;20139;-79
2020/12/07 03:31:58;;;;;;;35.40;17.37;;;;;;;;;;4361341;32;20192;-80
2020/12/07 03:34:23;;;;;;;36.07;16.27;;;;;;;;;;4377457;32;20130;-79
2020/12/07 03:36:48;;;;;;;25.27;14.13;;;;;;;;;;4378410;32;20159;-79
2020/12/07 03:39:14;;;;;;;22.87;12.87;;;;;;;;;;4377938;32;20130;-80
2020/12/07 03:41:39;;;;;;;29.60;14.63;;;;;;;;;;4378179;32;20587;-80
2020/12/07 03:44:05;;;;;;;24.67;13.60;;;;;;;;;;4378017;32;20131;-79
2020/12/07 03:46:30;;;;;;;22.73;12.10;;;;;;;;;;4364026;32;20193;-79
2020/12/07 03:48:55;;;;;;;21.40;12.67;;;;;;;;;;4378103;32;20197;-79
2020/12/07 03:51:21;;;;;;;22.57;12.67;;;;;;;;;;4377977;32;20134;-80
2020/12/07 03:53:46;;;;;;;25.17;13.77;;;;;;;;;;4378086;32;20158;-79
2020/12/07 03:56:11;;;;;;;20.60;11.10;;;;;;;;;;4363966;32;20260;-80
2020/12/07 03:58:37;;;;;;;17.07;10.57;;;;;;;;;;4377586;32;20162;-80
2020/12/07 04:01:03;;;;;;;18.47;11.03;;;;;;;;;;4364395;32;20155;-79
2020/12/07 04:03:29;;;;;;;17.67;11.03;;;;;;;;;;4377994;32;20196;-79
2020/12/07 04:06:03;;;;;;;17.83;10.50;;;;;;;;;;4377604;32;20134;-79
2020/12/07 04:08:28;;;;;;;17.67;10.53;;;;;;;;;;4377927;32;20193;-79
2020/12/07 04:10:54;;;;;;;16.27;9.47;;;;;;;;;;4377352;32;20135;-79
2020/12/07 04:13:19;;;;;;;20.37;10.23;;;;;;;;;;4363733;32;20162;-79
2020/12/07 04:15:44;;;;;;;20.00;10.13;;;;;;;;;;4377574;32;20131;-79
2020/12/07 04:18:09;;;;;;;18.83;10.20;;;;;;;;;;4377225;32;20131;-80
2020/12/07 04:20:35;;;;;;;19.60;11.00;;;;;;;;;;4363906;32;20155;-79
2020/12/07 04:23:00;;;;;;;18.80;10.93;;;;;;;;;;4363570;32;20157;-79
2020/12/07 04:25:26;;;;;;;25.73;11.53;;;;;;;;;;4363511;32;20572;-80
2020/12/07 04:27:51;;;;;;;23.90;12.63;;;;;;;;;;4378082;32;20210;-80
2020/12/07 04:30:16;;;;;;;23.27;12.27;;;;;;;;;;4377076;32;20254;-79
2020/12/07 04:32:41;;;;;;;23.83;12.77;;;;;;;;;;4377210;32;20196;-79
2020/12/07 04:35:06;;;;;;;25.17;12.97;;;;;;;;;;4363640;32;20179;-79
2020/12/07 04:37:32;;;;;;;22.47;12.50;;;;;;;;;;4376907;32;20128;-80
2020/12/07 04:39:57;;;;;;;20.40;12.10;;;;;;;;;;4377362;32;20230;-79
2020/12/07 04:42:24;;;;;;;19.60;11.27;;;;;;;;;;4363389;32;20154;-79
2020/12/07 04:44:49;;;;;;;24.47;13.40;;;;;;;;;;4376997;32;20207;-79
2020/12/07 04:47:16;;;;;;;20.27;10.60;;;;;;;;;;4376939;32;20521;-79
2020/12/07 04:49:42;;;;;;;21.70;10.90;;;;;;;;;;4377327;32;20233;-79
2020/12/07 04:52:08;;;;;;;15.47;9.40;;;;;;;;;;4377191;32;20170;-80
2020/12/07 04:54:35;;;;;;;13.97;8.53;;;;;;;;;;4377108;32;20594;-79
2020/12/07 04:57:01;;;;;;;13.67;7.80;;;;;;;;;;4377661;32;20254;-79
2020/12/07 04:59:26;;;;;;;13.87;7.70;;;;;;;;;;4377092;32;20131;-80
2020/12/07 05:01:52;;;;;;;13.07;7.30;;;;;;;;;;4376942;32;20196;-80
2020/12/07 05:04:17;;;;;;;15.47;7.73;;;;;;;;;;4376806;32;20590;-79
2020/12/07 05:06:42;;;;;;;9.93;5.40;;;;;;;;;;4378038;32;20188;-80
2020/12/07 05:09:08;;;;;;;10.27;5.57;;;;;;;;;;4376791;32;20170;-80
2020/12/07 05:11:33;;;;;;;8.77;4.73;;;;;;;;;;4377440;32;20169;-79
2020/12/07 05:14:10;;;;;;;6.27;4.27;;;;;;;;;;4362833;32;20178;-79
2020/12/07 05:16:36;;;;;;;6.93;3.60;;;;;;;;;;4377062;32;20226;-81
2020/12/07 05:19:01;;;;;;;8.13;4.17;;;;;;;;;;4362621;32;20178;-81
2020/12/07 05:21:27;;;;;;;5.60;3.57;;;;;;;;;;4363074;32;20158;-80
2020/12/07 05:23:52;;;;;;;6.73;3.60;;;;;;;;;;4376914;32;20157;-81
2020/12/07 05:26:19;;;;;;;5.27;3.70;;;;;;;;;;4363186;32;20213;-80
2020/12/07 05:28:48;;;;;;;7.10;4.30;;;;;;;;;;4376695;32;20147;-80
2020/12/07 05:31:19;;;;;;;10.00;4.60;;;;;;;;;;4376420;32;20154;-81
2020/12/07 05:33:46;;;;;;;5.90;4.20;;;;;;;;;;4376902;32;20143;-80
2020/12/07 05:36:24;;;;;;;9.13;5.07;;;;;;;;;;4376195;32;20151;-80
2020/12/07 05:41:38;;;;;;;12.77;7.30;;;;;;;;;;4368305;32;20193;-79
2020/12/07 05:44:03;;;;;;;18.40;9.83;;;;;;;;;;4363158;32;20159;-80
2020/12/07 05:46:29;;;;;;;19.13;10.17;;;;;;;;;;4362827;32;20637;-79
2020/12/07 05:48:55;;;;;;;17.73;10.53;;;;;;;;;;4376655;32;20480;-79
2020/12/07 05:51:24;;;;;;;23.70;12.97;;;;;;;;;;4376161;32;20161;-79
2020/12/07 05:53:51;;;;;;;20.40;11.93;;;;;;;;;;4377239;32;20260;-79
2020/12/07 05:56:16;;;;;;;21.30;12.83;;;;;;;;;;4375360;32;20213;-80
2020/12/07 05:59:01;;;;;;;22.63;12.90;;;;;;;;;;4376081;32;20484;-79
2020/12/07 06:01:26;;;;;;;21.67;11.73;;;;;;;;;;4362689;32;20178;-80
2020/12/07 06:03:52;;;;;;;24.30;13.27;;;;;;;;;;4376824;32;20196;-80
2020/12/07 06:06:22;;;;;;;19.60;10.97;;;;;;;;;;4364195;32;20516;-80
2020/12/07 06:08:47;;;;;;;17.97;10.97;;;;;;;;;;4362518;32;20245;-79
2020/12/07 06:11:13;;;;;;;21.63;11.70;;;;;;;;;;4362024;32;20626;-81
2020/12/07 06:13:38;;;;;;;17.30;10.10;;;;;;;;;;4362030;32;20626;-82
2020/12/07 06:16:04;;;;;;;15.97;9.57;;;;;;;;;;4362527;32;20557;-82
2020/12/07 06:18:31;;;;;;;20.03;10.40;;;;;;;;;;4362077;32;20158;-81
2020/12/07 06:21:09;;;;;;;16.57;9.30;;;;;;;;;;4362499;32;20166;-81
2020/12/07 06:23:35;;;;;;;17.00;9.47;;;;;;;;;;4361861;32;20155;-81
2020/12/07 06:26:02;;;;;;;15.10;8.57;;;;;;;;;;4375992;32;20218;-80
2020/12/07 06:28:31;;;;;;;13.23;7.47;;;;;;;;;;4361568;32;20588;-82
2020/12/07 06:31:00;;;;;;;14.73;8.80;;;;;;;;;;4361570;32;20202;-80
2020/12/07 06:33:25;;;;;;;13.30;7.83;;;;;;;;;;4376050;32;20522;-81
2020/12/07 06:35:53;;;;;;;17.90;9.47;;;;;;;;;;4376113;32;20147;-81
2020/12/07 06:38:19;;;;;;;13.27;8.17;;;;;;;;;;4362142;32;20166;-83
2020/12/07 06:40:50;;;;;;;14.37;8.53;;;;;;;;;;4376030;32;20148;-81
2020/12/07 06:43:17;;;;;;;15.17;8.50;;;;;;;;;;4362360;32;20623;-80
2020/12/07 06:45:42;;;;;;;12.97;8.43;;;;;;;;;;4362036;32;20155;-80
2020/12/07 06:48:15;;;;;;;18.93;9.87;;;;;;;;;;4361883;32;20206;-79
2020/12/07 06:50:42;;;;;;;17.70;8.93;;;;;;;;;;4375435;32;20213;-80
2020/12/07 06:53:41;;;;;;;18.40;9.83;;;;;;;;;;4361035;32;20174;-81
2020/12/07 06:56:08;;;;;;;17.40;9.70;;;;;;;;;;4361388;32;20155;-81
2020/12/07 06:58:36;;;;;;;15.97;9.10;;;;;;;;;;4374756;32;20131;-82
2020/12/07 07:01:12;;;;;;;16.73;9.33;;;;;;;;;;4361380;32;20236;-81
2020/12/07 07:03:49;;;;;;;18.10;9.00;;;;;;;;;;4360964;32;20135;-81
2020/12/07 07:06:18;;;;;;;14.70;9.43;;;;;;;;;;4360378;33;20548;-81
2020/12/07 07:08:43;;;;;;;19.13;9.70;;;;;;;;;;4346630;33;20162;-81
2020/12/07 07:11:08;;;;;;;15.90;9.10;;;;;;;;;;4346838;33;20186;-82
2020/12/07 07:13:34;;;;;;;16.17;9.33;;;;;;;;;;4369392;32;20147;-81
2020/12/07 07:16:00;;;;;;;16.87;8.87;;;;;;;;;;4361237;32;20181;-81
2020/12/07 07:18:25;;;;;;;14.43;8.80;;;;;;;;;;4361761;32;20215;-81
2020/12/07 07:20:58;;;;;;;17.40;9.13;;;;;;;;;;4375126;32;20483;-79
2020/12/07 07:23:24;;;;;;;15.50;8.53;;;;;;;;;;4375576;32;20131;-81
2020/12/07 07:25:55;;;;;;;19.13;9.13;;;;;;;;;;4361190;32;20673;-81
2020/12/07 07:28:28;;;;;;;18.93;10.37;;;;;;;;;;4362082;32;20657;-80
2020/12/07 07:30:53;;;;;;;20.73;11.20;;;;;;;;;;4375299;32;20131;-81
2020/12/07 07:33:18;;;;;;;22.97;12.03;;;;;;;;;;4375144;32;20192;-82
2020/12/07 07:35:47;;;;;;;21.43;12.57;;;;;;;;;;4374944;32;20154;-81
2020/12/07 07:38:15;;;;;;;23.00;12.37;;;;;;;;;;4374833;32;20123;-81
2020/12/07 07:40:40;;;;;;;23.07;12.83;;;;;;;;;;4361408;32;20166;-81
2020/12/07 07:43:15;;;;;;;29.17;14.97;;;;;;;;;;4360907;32;20293;-80
2020/12/07 07:45:40;;;;;;;18.90;11.37;;;;;;;;;;4375030;32;20130;-81
2020/12/07 07:48:18;;;;;;;22.87;12.40;;;;;;;;;;4374979;32;20234;-81
2020/12/07 08:17:51;;;;;;;21.20;10.57;;;;;;;;;;4375367;32;20189;-80
2020/12/07 08:20:25;;;;;;;20.17;11.30;;;;;;;;;;4376751;32;20200;-80
2020/12/07 08:22:57;;;;;;;18.60;9.53;;;;;;;;;;4363433;32;20268;-81
2020/12/07 08:25:43;;;;;;;17.27;9.70;;;;;;;;;;4364102;32;20237;-81
2020/12/07 08:28:26;;;;;;;18.63;10.00;;;;;;;;;;4363215;32;20545;-81
2020/12/07 08:31:01;;;;;;;18.57;10.70;;;;;;;;;;4376836;32;20185;-81
2020/12/07 08:33:26;;;;;;;17.57;10.67;;;;;;;;;;4363828;32;20150;-83
2020/12/07 08:35:53;;;;;;;17.60;10.37;;;;;;;;;;4363596;32;20181;-82
2020/12/07 08:38:25;;;;;;;21.30;11.30;;;;;;;;;;4363968;32;20190;-81
2020/12/07 08:41:01;;;;;;;20.70;10.70;;;;;;;;;;4363431;32;20171;-81
2020/12/07 08:43:29;;;;;;;21.90;11.53;;;;;;;;;;4363068;32;20162;-81
2020/12/07 08:45:54;;;;;;;20.00;10.83;;;;;;;;;;4376588;32;20214;-80
2020/12/07 08:48:19;;;;;;;19.90;11.27;;;;;;;;;;4363339;32;20163;-82
2020/12/07 08:50:45;;;;;;;18.70;10.13;;;;;;;;;;4351323;32;20249;-83
2020/12/07 08:53:10;;;;;;;18.03;10.00;;;;;;;;;;4363239;32;20154;-82
2020/12/07 08:55:38;;;;;;;18.07;9.27;;;;;;;;;;4363350;32;20192;-83
2020/12/07 08:58:04;;;;;;;16.63;8.97;;;;;;;;;;4362864;32;20194;-82
2020/12/07 09:00:29;;;;;;;16.60;9.73;;;;;;;;;;4362846;32;20154;-83
2020/12/07 09:02:54;;;;;;;11.03;7.23;;;;;;;;;;4363360;32;20181;-83
2020/12/07 09:05:20;;;;;;;13.57;7.60;;;;;;;;;;4377071;32;20127;-82
2020/12/07 09:07:48;;;;;;;11.60;6.87;;;;;;;;;;4363058;32;20167;-83
2020/12/07 09:10:13;;;;;;;12.13;7.03;;;;;;;;;;4362922;32;20185;-82
2020/12/07 09:12:38;;;;;;;10.93;6.93;;;;;;;;;;4363013;32;20181;-83
2020/12/07 09:15:09;;;;;;;10.57;6.80;;;;;;;;;;4363094;32;20159;-82
2020/12/07 09:17:50;;;;;;;8.87;6.10;;;;;;;;;;4363719;32;20214;-81
2020/12/07 09:20:44;;;;;;;9.67;5.53;;;;;;;;;;4363168;32;20162;-82
2020/12/07 09:23:31;;;;;;;10.60;6.67;;;;;;;;;;4354295;32;20651;-82
2020/12/07 09:25:57;;;;;;;17.23;10.13;;;;;;;;;;4362972;32;20184;-81
2020/12/07 09:28:25;;;;;;;19.07;12.20;;;;;;;;;;4362406;32;20166;-81
2020/12/07 09:30:55;;;;;;;21.80;13.30;;;;;;;;;;4361172;32;20599;-82
2020/12/07 09:33:33;;;;;;;19.93;12.23;;;;;;;;;;4362778;32;20158;-82
2020/12/07 09:36:02;;;;;;;18.80;10.90;;;;;;;;;;4360070;32;20201;-82
2020/12/07 09:38:39;;;;;;;17.77;10.70;;;;;;;;;;4362385;32;20304;-83
2020/12/07 09:41:04;;;;;;;19.27;11.20;;;;;;;;;;4363266;32;20188;-83
2020/12/07 09:43:37;;;;;;;22.53;13.57;;;;;;;;;;4376162;32;20138;-83
2020/12/07 09:46:03;;;;;;;26.50;15.90;;;;;;;;;;4362374;32;20205;-83
2020/12/07 09:48:28;;;;;;;30.53;17.57;;;;;;;;;;4362054;32;20202;-82
2020/12/07 09:50:53;;;;;;;31.03;19.60;;;;;;;;;;4362650;32;20591;-83
2020/12/07 09:53:19;;;;;;;36.57;21.43;;;;;;;;;;4361066;32;20570;-82
2020/12/07 09:55:47;;;;;;;36.57;22.90;;;;;;;;;;4358417;33;20186;-84
2020/12/07 09:58:14;;;;;;;39.27;24.60;;;;;;;;;;4347173;33;20159;-82
2020/12/07 10:00:50;;;;;;;41.07;24.17;;;;;;;;;;4347442;33;20163;-83
2020/12/07 10:03:19;;;;;;;43.00;26.10;;;;;;;;;;4347267;33;20170;-84
2020/12/07 10:05:44;;;;;;;51.83;29.70;;;;;;;;;;4347131;33;20242;-84
2020/12/07 10:08:33;;;;;;;47.23;27.97;;;;;;;;;;4347206;33;20557;-83
2020/12/07 10:11:00;;;;;;;46.23;27.77;;;;;;;;;;4360502;33;20167;-83
2020/12/07 10:13:26;;;;;;;51.80;30.20;;;;;;;;;;4346322;33;20229;-82
2020/12/07 10:15:54;;;;;;;53.57;30.77;;;;;;;;;;4347334;33;20162;-83
2020/12/07 10:18:46;;;;;;;57.87;33.37;;;;;;;;;;4347316;33;20159;-84
2020/12/07 10:21:13;;;;;;;53.10;31.30;;;;;;;;;;4359186;32;20595;-82
2020/12/07 10:23:54;;;;;;;;;;;;;;;;;;;;;
2020/12/07 10:26:26;;;;;;;55.50;32.00;;;;;;;;;;4373856;32;20143;-83
2020/12/07 10:28:52;;;;;;;57.40;31.97;;;;;;;;;;4374205;32;20208;-83
2020/12/07 10:31:21;;;;;;;52.23;29.80;;;;;;;;;;4360738;32;20170;-83
2020/12/07 10:33:59;;;;;;;60.00;31.87;;;;;;;;;;4374922;32;20465;-83
2020/12/07 10:36:27;;;;;;;58.67;31.03;;;;;;;;;;4361227;32;20630;-82
2020/12/07 10:38:56;;;;;;;61.77;30.53;;;;;;;;;;4361032;32;20656;-82
2020/12/07 10:41:28;;;;;;;61.50;29.77;;;;;;;;;;4361154;32;20576;-82
2020/12/07 10:43:56;;;;;;;62.63;33.17;;;;;;;;;;4375246;32;20142;-82
2020/12/07 10:46:22;;;;;;;59.53;32.40;;;;;;;;;;4361182;32;20600;-83
2020/12/07 10:48:51;;;;;;;64.43;32.63;;;;;;;;;;4374475;32;20229;-81
2020/12/07 10:51:17;;;;;;;60.43;32.13;;;;;;;;;;4360619;32;20180;-81
2020/12/07 10:53:48;;;;;;;62.73;33.37;;;;;;;;;;4361085;32;20843;-81
2020/12/07 10:56:14;;;;;;;62.93;30.70;;;;;;;;;;4361285;32;20163;-81
2020/12/07 10:58:41;;;;;;;55.17;31.37;;;;;;;;;;4359710;32;20217;-81
2020/12/07 11:01:06;;;;;;;65.30;32.90;;;;;;;;;;4369458;32;20271;-82
2020/12/07 11:03:32;;;;;;;67.17;34.57;;;;;;;;;;4375603;32;20151;-81
2020/12/07 11:06:14;;;;;;;58.77;32.67;;;;;;;;;;4375957;32;20155;-82
2020/12/07 11:08:48;;;;;;;63.60;33.50;;;;;;;;;;4385540;32;20185;-81
2020/12/07 11:11:14;;;;;;;59.83;33.57;;;;;;;;;;4363443;32;20210;-81
2020/12/07 11:13:39;;;;;;;63.57;33.87;;;;;;;;;;4378113;32;20173;-81
2020/12/07 11:16:04;;;;;;;64.60;33.50;;;;;;;;;;4366009;32;20517;-81
2020/12/07 11:18:30;;;;;;;63.50;33.73;;;;;;;;;;4376156;32;20159;-82
2020/12/07 11:20:57;;;;;;;71.27;33.70;;;;;;;;;;4360812;32;20690;-82
2020/12/07 11:23:23;;;;;;;68.53;33.93;;;;;;;;;;4360611;32;20151;-81
2020/12/07 11:25:49;;;;;;;64.40;33.03;;;;;;;;;;4360908;32;20186;-81
2020/12/07 11:28:14;;;;;;;68.97;33.17;;;;;;;;;;4378397;32;20177;-81
2020/12/07 11:30:39;;;;;;;68.13;32.30;;;;;;;;;;4369472;32;20158;-81
2020/12/07 11:33:05;;;;;;;65.87;33.83;;;;;;;;;;4360740;32;20285;-81
2020/12/07 11:35:30;;;;;;;58.23;31.03;;;;;;;;;;4360541;32;20159;-81
2020/12/07 11:38:04;;;;;;;68.93;32.40;;;;;;;;;;4360658;32;20278;-81
2020/12/07 11:43:17;;;;;;;55.50;29.63;;;;;;;;;;4374604;32;20127;-81
2020/12/07 11:45:43;;;;;;;52.23;28.63;;;;;;;;;;4374476;32;20123;-81
2020/12/07 11:48:08;;;;;;;58.83;27.77;;;;;;;;;;4374204;32;20197;-82
2020/12/07 11:50:34;;;;;;;63.13;31.97;;;;;;;;;;4360631;32;20181;-81
2020/12/07 11:52:59;;;;;;;57.83;29.27;;;;;;;;;;4360512;32;20170;-82
2020/12/07 11:55:24;;;;;;;59.97;30.63;;;;;;;;;;4376507;32;20488;-81
2020/12/07 11:57:50;;;;;;;55.53;31.17;;;;;;;;;;4363651;32;20174;-82
2020/12/07 12:00:15;;;;;;;60.83;31.40;;;;;;;;;;4364333;32;20225;-82
2020/12/07 12:02:40;;;;;;;70.27;31.07;;;;;;;;;;4363274;32;20212;-81
2020/12/07 12:05:05;;;;;;;63.80;31.03;;;;;;;;;;4362852;32;20602;-80
2020/12/07 12:07:31;;;;;;;60.20;31.17;;;;;;;;;;4363112;32;20155;-81
2020/12/07 12:09:56;;;;;;;55.80;30.57;;;;;;;;;;4363788;32;20200;-81
2020/12/07 12:12:21;;;;;;;58.17;29.93;;;;;;;;;;4363083;32;20162;-81
2020/12/07 12:14:46;;;;;;;62.10;30.97;;;;;;;;;;4363111;32;20154;-83
2020/12/07 12:17:14;;;;;;;65.27;33.07;;;;;;;;;;4364161;32;20155;-82
2020/12/07 12:19:39;;;;;;;70.63;34.67;;;;;;;;;;4362940;32;20154;-82
2020/12/07 12:22:05;;;;;;;61.83;33.47;;;;;;;;;;4362934;32;20269;-83
2020/12/07 12:24:30;;;;;;;63.40;32.50;;;;;;;;;;4362857;32;20239;-84
2020/12/07 12:26:55;;;;;;;64.53;31.97;;;;;;;;;;4364225;32;20155;-82
2020/12/07 12:29:21;;;;;;;54.80;30.10;;;;;;;;;;4350639;32;20633;-83
2020/12/07 12:31:46;;;;;;;50.50;28.87;;;;;;;;;;4363010;32;20220;-82
2020/12/07 12:34:11;;;;;;;55.70;29.67;;;;;;;;;;4363025;32;20170;-80
2020/12/07 12:36:36;;;;;;;56.10;30.07;;;;;;;;;;4363294;32;20189;-82
2020/12/07 12:39:02;;;;;;;55.43;28.93;;;;;;;;;;4363509;32;20229;-82
2020/12/07 12:41:27;;;;;;;59.43;30.93;;;;;;;;;;4362453;32;20220;-81
2020/12/07 12:43:53;;;;;;;58.73;30.57;;;;;;;;;;4358753;33;20159;-82
2020/12/07 12:46:18;;;;;;;60.03;31.20;;;;;;;;;;4347846;33;20290;-82
2020/12/07 12:48:44;;;;;;;60.27;31.57;;;;;;;;;;4352083;32;20190;-83
2020/12/07 12:51:10;;;;;;;66.40;32.27;;;;;;;;;;4362735;32;20219;-81
2020/12/07 12:53:36;;;;;;;64.67;30.80;;;;;;;;;;4362697;32;20177;-81
2020/12/07 12:56:04;;;;;;;79.57;34.40;;;;;;;;;;4350107;32;20575;-81
2020/12/07 12:58:29;;;;;;;73.33;34.43;;;;;;;;;;4362955;32;20216;-82
2020/12/07 13:00:54;;;;;;;84.50;36.97;;;;;;;;;;4375165;32;20487;-81
2020/12/07 13:03:22;;;;;;;82.67;37.13;;;;;;;;;;4372910;32;20496;-82
2020/12/07 13:05:47;;;;;;;87.53;37.37;;;;;;;;;;4368661;32;20217;-81
2020/12/07 13:08:13;;;;;;;86.33;36.30;;;;;;;;;;4376076;32;20528;-82
2020/12/07 13:10:38;;;;;;;91.23;39.20;;;;;;;;;;4362512;32;20698;-81
2020/12/07 13:13:04;;;;;;;96.13;39.23;;;;;;;;;;4362333;32;20173;-81
2020/12/07 13:15:30;;;;;;;91.23;39.33;;;;;;;;;;4362449;32;20174;-81
2020/12/07 13:18:02;;;;;;;93.23;39.70;;;;;;;;;;4376088;32;20169;-81
2020/12/07 13:20:32;;;;;;;110.27;43.37;;;;;;;;;;4375957;32;20142;-81
2020/12/07 13:23:05;;;;;;;103.07;42.20;;;;;;;;;;4363426;32;20155;-81
2020/12/07 13:25:39;;;;;;;100.87;40.87;;;;;;;;;;4362506;32;20495;-82
2020/12/07 13:28:13;;;;;;;103.97;44.23;;;;;;;;;;4376955;32;20628;-82
2020/12/07 13:30:39;;;;;;;103.03;42.70;;;;;;;;;;4377653;32;20654;-81
2020/12/07 13:33:05;;;;;;;110.10;44.40;;;;;;;;;;4370242;32;20155;-82
2020/12/07 13:35:30;;;;;;;100.70;42.03;;;;;;;;;;4363017;32;20233;-82
2020/12/07 13:37:55;;;;;;;104.50;44.60;;;;;;;;;;4375789;32;20131;-82
2020/12/07 13:40:20;;;;;;;106.00;41.83;;;;;;;;;;4362071;32;20600;-82
2020/12/07 13:42:46;;;;;;;99.60;43.27;;;;;;;;;;4362059;32;20185;-82
2020/12/07 13:45:11;;;;;;;100.23;41.63;;;;;;;;;;4362404;32;20457;-82
2020/12/07 13:47:36;;;;;;;95.67;39.73;;;;;;;;;;4361960;32;20229;-82
2020/12/07 13:50:02;;;;;;;101.10;42.43;;;;;;;;;;4362414;32;20205;-82
2020/12/07 13:52:27;;;;;;;97.63;40.53;;;;;;;;;;4362251;32;20148;-82
2020/12/07 13:54:52;;;;;;;97.07;40.57;;;;;;;;;;4362109;32;20159;-83
2020/12/07 13:57:20;;;;;;;103.97;42.10;;;;;;;;;;4362052;32;20194;-82
2020/12/07 13:59:46;;;;;;;99.47;40.57;;;;;;;;;;4362354;32;20479;-81
2020/12/07 14:02:11;;;;;;;94.53;38.53;;;;;;;;;;4361823;32;20217;-82
2020/12/07 14:04:41;;;;;;;94.90;39.90;;;;;;;;;;4361633;32;20158;-82
2020/12/07 14:07:06;;;;;;;94.93;39.00;;;;;;;;;;4362205;32;20185;-82
2020/12/07 14:09:32;;;;;;;92.33;37.90;;;;;;;;;;4361702;32;20596;-82
2020/12/07 14:11:59;;;;;;;89.60;37.97;;;;;;;;;;4361858;32;20159;-83
2020/12/07 14:14:25;;;;;;;96.07;37.90;;;;;;;;;;4362242;32;20155;-83
2020/12/07 14:16:57;;;;;;;91.43;37.37;;;;;;;;;;4361676;32;20179;-84
2020/12/07 14:19:28;;;;;;;86.33;37.33;;;;;;;;;;4361568;32;20167;-84
2020/12/07 14:22:10;;;;;;;88.93;36.83;;;;;;;;;;4375511;32;20131;-83
2020/12/07 14:39:22;;;;;;;87.63;36.07;;;;;;;;;;4390050;32;20192;-82
2020/12/07 14:41:01;;;;;;;87.90;37.20;;;;;;;;;;4369630;32;20189;-82
2020/12/07 14:43:27;;;;;;;79.53;35.70;;;;;;;;;;4361567;32;20576;-83
2020/12/07 14:46:01;;;;;;;73.97;34.10;;;;;;;;;;4361448;32;20220;-83
2020/12/07 14:48:27;;;;;;;70.90;31.07;;;;;;;;;;4358491;32;20182;-82
2020/12/07 14:50:56;;;;;;;81.40;35.53;;;;;;;;;;4373297;32;20139;-82
2020/12/07 14:53:26;;;;;;;77.33;33.40;;;;;;;;;;4351094;32;20181;-81
2020/12/07 14:56:00;;;;;;;73.87;34.10;;;;;;;;;;4361089;32;21611;-82
2020/12/07 15:06:23;;;;;;;90.97;37.10;;;;;;;;;;4382131;32;20161;-82
2020/12/07 15:09:17;;;;;;;83.13;34.97;;;;;;;;;;4389306;32;20594;-82
2020/12/07 15:11:56;;;;;;;80.20;34.60;;;;;;;;;;4389939;32;20170;-81
2020/12/07 15:14:21;;;;;;;83.87;34.30;;;;;;;;;;4390522;32;20131;-82
2020/12/07 15:16:46;;;;;;;84.63;34.27;;;;;;;;;;4374156;32;20204;-82
2020/12/07 15:19:12;;;;;;;74.70;32.90;;;;;;;;;;4361483;32;20189;-81
2020/12/07 15:21:38;;;;;;;87.67;35.07;;;;;;;;;;4361162;32;20517;-82